createdAt,value
2018-01-15T00:01:51.666Z,3.73
2018-01-15T00:04:19.382Z,3.58
2018-01-15T00:06:46.889Z,3.96
2018-01-15T00:09:14.753Z,3.71
2018-01-15T00:11:42.318Z,3.33
2018-01-15T00:14:09.825Z,3.50
2018-01-15T00:16:37.333Z,3.33
2018-01-15T00:19:04.894Z,3.16
2018-01-15T00:21:32.406Z,3.09
2018-01-15T00:23:59.920Z,3.48
2018-01-15T00:26:27.516Z,3.31
2018-01-15T00:28:55.026Z,3.53
2018-01-15T00:31:22.546Z,3.23
2018-01-15T00:33:50.209Z,3.31
2018-01-15T00:36:17.726Z,3.20
2018-01-15T00:38:45.241Z,3.37
2018-01-15T00:41:12.802Z,3.58
2018-01-15T00:43:40.326Z,3.33
2018-01-15T00:46:07.833Z,3.42
2018-01-15T00:48:35.613Z,3.10
2018-01-15T00:51:03.126Z,2.99
2018-01-15T00:53:30.649Z,2.91
2018-01-15T00:55:58.529Z,2.79
2018-01-15T00:58:26.034Z,3.00
2018-01-15T01:00:53.913Z,3.13
2018-01-15T01:03:21.533Z,2.95
2018-01-15T01:05:49.045Z,3.10
2018-01-15T01:08:16.549Z,3.10
2018-01-15T01:10:44.279Z,3.06
2018-01-15T01:13:11.793Z,3.10
2018-01-15T01:15:39.306Z,3.12
2018-01-15T01:18:06.865Z,2.86
2018-01-15T01:20:34.373Z,3.22
2018-01-15T01:23:01.885Z,3.09
2018-01-15T01:25:29.426Z,3.30
2018-01-15T01:27:56.929Z,3.16
2018-01-15T01:30:24.445Z,3.16
2018-01-15T01:32:52.213Z,3.17
2018-01-15T01:35:19.726Z,3.29
2018-01-15T01:37:47.241Z,3.17
2018-01-15T01:40:15.094Z,3.44
2018-01-15T01:42:42.610Z,3.43
2018-01-15T01:45:10.122Z,3.45
2018-01-15T01:47:38.029Z,2.93
2018-01-15T01:50:05.552Z,2.87
2018-01-15T01:52:33.113Z,2.87
2018-01-15T01:55:00.665Z,2.98
2018-01-15T01:57:28.182Z,2.98
2018-01-15T01:59:55.697Z,3.07
2018-01-15T02:02:23.336Z,2.92
2018-01-15T02:04:50.842Z,2.85
2018-01-15T02:07:18.351Z,3.30
2018-01-15T02:09:46.121Z,2.86
2018-01-15T02:12:13.636Z,3.42
2018-01-15T02:14:41.145Z,3.40
2018-01-15T02:17:08.781Z,3.18
2018-01-15T02:19:36.376Z,3.76
2018-01-15T02:22:03.893Z,3.23
2018-01-15T02:24:31.601Z,3.59
2018-01-15T02:26:59.174Z,3.13
2018-01-15T02:29:26.681Z,3.33
2018-01-15T02:31:54.373Z,3.00
2018-01-15T02:34:21.885Z,3.25
2018-01-15T02:36:49.402Z,3.07
2018-01-15T02:39:16.954Z,2.95
2018-01-15T02:41:44.470Z,3.28
2018-01-15T02:44:11.985Z,3.08
2018-01-15T02:46:39.618Z,2.99
2018-01-15T02:49:07.125Z,2.83
2018-01-15T02:51:34.641Z,2.95
2018-01-15T02:54:02.373Z,2.67
2018-01-15T02:56:29.902Z,3.13
2018-01-15T02:58:57.421Z,3.12
2018-01-15T03:01:25.054Z,3.19
2018-01-15T03:03:52.561Z,3.23
2018-01-15T03:06:20.073Z,3.27
2018-01-15T03:08:47.649Z,3.18
2018-01-15T03:11:15.157Z,3.17
2018-01-15T03:13:42.669Z,3.09
2018-01-15T03:16:10.212Z,3.16
2018-01-15T03:18:37.738Z,3.37
2018-01-15T03:21:05.245Z,3.31
2018-01-15T03:23:32.796Z,3.38
2018-01-15T03:26:00.301Z,3.14
2018-01-15T03:28:27.813Z,3.13
2018-01-15T03:30:55.390Z,3.26
2018-01-15T03:33:22.901Z,3.81
2018-01-15T03:35:50.410Z,3.80
2018-01-15T03:38:18.041Z,4.13
2018-01-15T03:40:45.558Z,3.79
2018-01-15T03:43:13.087Z,3.27
2018-01-15T03:45:40.942Z,3.74
2018-01-15T03:48:08.448Z,3.20
2018-01-15T03:50:35.958Z,3.13
2018-01-15T03:53:03.674Z,3.42
2018-01-15T03:55:31.188Z,3.48
2018-01-15T03:57:58.693Z,3.51
2018-01-15T04:00:26.258Z,3.65
2018-01-15T04:02:53.768Z,3.70
2018-01-15T04:05:21.278Z,4.22
2018-01-15T04:07:48.970Z,4.26
2018-01-15T04:10:16.484Z,3.87
2018-01-15T04:12:43.983Z,4.14
2018-01-15T04:15:11.688Z,4.47
2018-01-15T04:17:39.196Z,4.66
2018-01-15T04:20:06.696Z,4.00
2018-01-15T04:22:34.239Z,3.71
2018-01-15T04:25:02.108Z,4.01
2018-01-15T04:27:29.613Z,4.07
2018-01-15T04:29:57.224Z,3.89
2018-01-15T04:32:24.736Z,3.85
2018-01-15T04:34:52.257Z,4.09
2018-01-15T04:37:19.980Z,4.09
2018-01-15T04:39:47.480Z,3.84
2018-01-15T04:42:14.980Z,3.76
2018-01-15T04:44:42.524Z,3.81
2018-01-15T04:47:10.028Z,3.76
2018-01-15T04:49:37.530Z,4.13
2018-01-15T04:52:05.352Z,3.83
2018-01-15T04:54:32.865Z,3.90
2018-01-15T04:57:00.373Z,3.95
2018-01-15T04:59:27.909Z,4.07
2018-01-15T05:01:55.412Z,4.05
2018-01-15T05:04:22.916Z,3.81
2018-01-15T05:06:50.593Z,3.66
2018-01-15T05:09:18.101Z,3.48
2018-01-15T05:11:45.604Z,3.81
2018-01-15T05:14:13.160Z,3.73
2018-01-15T05:16:40.675Z,3.65
2018-01-15T05:19:08.172Z,3.74
2018-01-15T05:21:35.884Z,4.03
2018-01-15T05:24:03.388Z,4.17
2018-01-15T05:26:30.892Z,3.98
2018-01-15T05:28:58.439Z,3.64
2018-01-15T05:31:25.940Z,3.88
2018-01-15T05:33:53.444Z,4.03
2018-01-15T05:36:21.283Z,3.89
2018-01-15T05:38:48.792Z,3.99
2018-01-15T05:41:16.304Z,3.70
2018-01-15T05:43:44.139Z,3.67
2018-01-15T05:46:11.636Z,3.48
2018-01-15T05:48:39.139Z,3.58
2018-01-15T05:51:06.713Z,3.52
2018-01-15T05:53:34.212Z,3.66
2018-01-15T05:56:01.716Z,3.92
2018-01-15T05:58:29.248Z,3.98
2018-01-15T06:00:56.748Z,3.56
2018-01-15T06:03:24.249Z,3.71
2018-01-15T06:05:51.804Z,3.73
2018-01-15T06:08:19.309Z,3.68
2018-01-15T06:10:46.838Z,3.64
2018-01-15T06:13:14.672Z,3.45
2018-01-15T06:15:42.180Z,3.74
2018-01-15T06:18:09.828Z,3.67
2018-01-15T06:20:37.619Z,3.46
2018-01-15T06:23:05.262Z,3.38
2018-01-15T06:25:32.897Z,3.50
2018-01-15T06:28:00.696Z,3.24
2018-01-15T06:30:28.349Z,3.32
2018-01-15T06:32:57.640Z,3.34
2018-01-15T06:35:25.330Z,3.28
2018-01-15T06:37:52.952Z,3.69
2018-01-15T06:40:20.585Z,3.79
2018-01-15T06:42:48.360Z,3.64
2018-01-15T06:45:16.006Z,3.86
2018-01-15T06:47:43.623Z,3.85
2018-01-15T06:50:11.356Z,3.78
2018-01-15T06:52:39.040Z,3.95
2018-01-15T06:55:06.660Z,3.59
2018-01-15T06:57:34.416Z,3.82
2018-01-15T07:00:02.069Z,3.82
2018-01-15T07:02:29.699Z,4.27
2018-01-15T07:04:57.674Z,3.70
2018-01-15T07:07:25.329Z,3.66
2018-01-15T07:09:52.941Z,3.47
2018-01-15T07:12:20.617Z,3.46
2018-01-15T07:14:48.258Z,3.53
2018-01-15T07:17:15.905Z,3.40
2018-01-15T07:19:43.745Z,3.43
2018-01-15T07:22:11.373Z,3.76
2018-01-15T07:24:38.992Z,3.61
2018-01-15T07:27:06.820Z,3.74
2018-01-15T07:29:34.454Z,3.61
2018-01-15T07:32:02.416Z,3.85
2018-01-15T07:34:30.683Z,3.84
2018-01-15T07:36:58.325Z,4.06
2018-01-15T07:39:25.972Z,3.78
2018-01-15T07:41:53.813Z,3.85
2018-01-15T07:44:21.457Z,4.04
2018-01-15T07:46:49.429Z,3.85
2018-01-15T07:49:17.359Z,3.99
2018-01-15T07:51:44.989Z,4.12
2018-01-15T07:54:12.634Z,3.94
2018-01-15T07:56:40.307Z,3.80
2018-01-15T07:59:07.940Z,3.72
2018-01-15T08:01:35.581Z,3.86
2018-01-15T08:04:03.540Z,4.01
2018-01-15T08:06:31.175Z,4.04
2018-01-15T08:08:58.820Z,4.32
2018-01-15T08:11:26.706Z,4.44
2018-01-15T08:13:54.323Z,4.08
2018-01-15T08:16:21.968Z,3.92
2018-01-15T08:18:49.668Z,4.13
2018-01-15T08:21:17.312Z,4.03
2018-01-15T08:23:44.957Z,3.76
2018-01-15T08:26:12.666Z,4.25
2018-01-15T08:28:40.324Z,4.21
2018-01-15T08:31:07.967Z,4.63
2018-01-15T08:33:35.880Z,4.76
2018-01-15T08:36:03.526Z,5.06
2018-01-15T08:38:31.171Z,5.03
2018-01-15T08:40:58.961Z,5.37
2018-01-15T08:43:26.616Z,5.01
2018-01-15T08:45:54.234Z,5.45
2018-01-15T08:48:22.139Z,5.13
2018-01-15T08:50:49.755Z,5.49
2018-01-15T08:53:17.496Z,5.34
2018-01-15T08:55:45.484Z,5.74
2018-01-15T08:58:13.130Z,5.90
2018-01-15T09:00:40.792Z,6.12
2018-01-15T09:03:08.557Z,6.15
2018-01-15T09:05:36.205Z,6.68
2018-01-15T09:08:03.863Z,6.37
2018-01-15T09:10:31.643Z,6.38
2018-01-15T09:12:59.292Z,6.51
2018-01-15T09:15:26.939Z,6.41
2018-01-15T09:17:54.653Z,6.34
2018-01-15T09:20:22.286Z,6.29
2018-01-15T09:22:49.938Z,6.07
2018-01-15T09:25:17.802Z,5.86
2018-01-15T09:27:45.456Z,6.40
2018-01-15T09:30:13.092Z,6.33
2018-01-15T09:32:40.945Z,6.61
2018-01-15T09:35:08.586Z,6.32
2018-01-15T09:37:36.235Z,6.23
2018-01-15T09:40:04.016Z,5.95
2018-01-15T09:42:31.648Z,6.20
2018-01-15T09:44:59.277Z,6.39
2018-01-15T09:47:27.116Z,6.13
2018-01-15T09:49:54.753Z,6.32
2018-01-15T09:52:22.387Z,6.50
2018-01-15T09:54:50.502Z,6.33
2018-01-15T09:57:18.151Z,6.25
2018-01-15T09:59:45.799Z,6.39
2018-01-15T10:02:13.490Z,6.63
2018-01-15T10:04:41.182Z,6.36
2018-01-15T10:07:08.813Z,6.66
2018-01-15T10:09:36.699Z,6.50
2018-01-15T10:12:04.690Z,6.27
2018-01-15T10:14:32.345Z,6.57
2018-01-15T10:17:00.040Z,6.64
2018-01-15T10:19:27.706Z,6.78
2018-01-15T10:21:56.327Z,6.31
2018-01-15T10:24:25.083Z,7.10
2018-01-15T10:26:53.173Z,7.24
2018-01-15T10:29:20.831Z,7.19
2018-01-15T10:31:48.637Z,7.66
2018-01-15T10:34:16.500Z,7.36
2018-01-15T10:36:44.772Z,7.65
2018-01-15T10:39:12.595Z,7.45
2018-01-15T10:41:40.198Z,7.25
2018-01-15T10:44:07.842Z,7.44
2018-01-15T10:46:35.535Z,7.41
2018-01-15T10:49:03.183Z,7.35
2018-01-15T10:51:31.074Z,7.20
2018-01-15T10:53:58.867Z,6.84
2018-01-15T10:56:26.490Z,6.74
2018-01-15T10:58:54.451Z,6.87
2018-01-15T11:01:27.936Z,7.18
2018-01-15T11:03:55.562Z,7.22
2018-01-15T11:06:23.190Z,7.19
2018-01-15T11:08:50.977Z,7.43
2018-01-15T11:11:18.600Z,6.77
2018-01-15T11:13:46.223Z,6.99
2018-01-15T11:16:14.861Z,7.07
2018-01-15T11:18:42.535Z,6.84
2018-01-15T11:21:10.202Z,7.28
2018-01-15T11:23:38.060Z,6.85
2018-01-15T11:26:05.683Z,7.11
2018-01-15T11:28:33.296Z,6.83
2018-01-15T11:31:00.994Z,6.98
2018-01-15T11:33:28.610Z,7.00
2018-01-15T11:35:56.246Z,7.47
2018-01-15T11:38:24.375Z,7.48
2018-01-15T11:40:52.854Z,7.67
2018-01-15T11:43:20.499Z,7.92
2018-01-15T11:45:48.342Z,7.70
2018-01-15T11:48:16.365Z,8.41
2018-01-15T11:50:44.048Z,8.73
2018-01-15T11:53:11.785Z,8.84
2018-01-15T11:55:39.433Z,8.78
2018-01-15T11:58:07.079Z,9.83
2018-01-15T12:00:35.160Z,10.35
2018-01-15T12:03:02.798Z,9.97
2018-01-15T12:05:30.475Z,9.81
2018-01-15T12:07:58.445Z,9.74
2018-01-15T12:10:26.086Z,9.60
2018-01-15T12:12:53.596Z,9.35
2018-01-15T12:15:21.924Z,9.34
2018-01-15T12:17:49.432Z,9.92
2018-01-15T12:20:17.756Z,10.30
2018-01-15T12:22:45.681Z,10.21
2018-01-15T12:25:14.113Z,10.86
2018-01-15T12:27:41.640Z,11.22
2018-01-15T12:30:09.268Z,11.08
2018-01-15T12:32:36.782Z,10.96
2018-01-15T12:35:05.161Z,10.58
2018-01-15T12:37:32.865Z,10.16
2018-01-15T12:40:00.368Z,9.59
2018-01-15T12:42:28.696Z,10.41
2018-01-15T12:44:56.320Z,10.21
2018-01-15T12:47:23.845Z,10.20
2018-01-15T12:49:51.397Z,9.49
2018-01-15T12:52:19.113Z,8.90
2018-01-15T12:54:46.636Z,9.13
2018-01-15T12:57:14.141Z,9.22
2018-01-15T12:59:41.786Z,8.91
2018-01-15T13:02:09.294Z,9.04
2018-01-15T13:04:37.267Z,9.13
2018-01-15T13:07:04.811Z,8.95
2018-01-15T13:09:32.524Z,9.08
2018-01-15T13:12:00.505Z,9.19
2018-01-15T13:14:28.749Z,9.36
2018-01-15T13:16:56.253Z,9.08
2018-01-15T13:19:23.764Z,9.32
2018-01-15T13:21:51.500Z,9.38
2018-01-15T13:24:19.028Z,9.68
2018-01-15T13:26:46.533Z,9.66
2018-01-15T13:29:14.408Z,9.47
2018-01-15T13:31:41.928Z,9.55
2018-01-15T13:34:09.434Z,9.87
2018-01-15T13:36:37.385Z,9.42
2018-01-15T13:39:04.889Z,9.70
2018-01-15T13:41:32.392Z,9.92
2018-01-15T13:44:00.850Z,10.23
2018-01-15T13:46:28.353Z,9.87
2018-01-15T13:48:55.861Z,9.77
2018-01-15T13:51:23.985Z,9.92
2018-01-15T13:53:51.485Z,9.59
2018-01-15T13:56:19.842Z,9.81
2018-01-15T13:58:47.480Z,10.22
2018-01-15T14:01:15.348Z,9.56
2018-01-15T14:03:42.856Z,9.71
2018-01-15T14:06:10.491Z,9.48
2018-01-15T14:08:37.996Z,9.82
2018-01-15T14:11:05.511Z,9.96
2018-01-15T14:13:33.041Z,9.83
2018-01-15T14:16:00.544Z,9.32
2018-01-15T14:18:28.071Z,9.48
2018-01-15T14:20:56.008Z,9.34
2018-01-15T14:23:23.514Z,9.39
2018-01-15T14:25:51.017Z,9.76
2018-01-15T14:28:18.739Z,9.18
2018-01-15T14:30:46.265Z,9.50
2018-01-15T14:33:13.772Z,9.26
2018-01-15T14:35:41.334Z,9.07
2018-01-15T14:38:08.848Z,9.13
2018-01-15T14:40:36.413Z,8.98
2018-01-15T14:43:04.274Z,9.18
2018-01-15T14:45:32.638Z,9.38
2018-01-15T14:48:00.508Z,9.03
2018-01-15T14:50:28.141Z,8.94
2018-01-15T14:52:55.640Z,8.88
2018-01-15T14:55:23.136Z,8.85
2018-01-15T14:57:50.672Z,8.81
2018-01-15T15:00:18.185Z,9.10
2018-01-15T15:02:45.684Z,9.12
2018-01-15T15:05:13.317Z,8.92
2018-01-15T15:07:40.817Z,9.19
2018-01-15T15:10:08.321Z,9.28
2018-01-15T15:12:35.895Z,9.32
2018-01-15T15:15:03.486Z,9.06
2018-01-15T15:17:30.997Z,9.27
2018-01-15T15:19:58.821Z,9.17
2018-01-15T15:22:26.333Z,9.23
2018-01-15T15:24:53.998Z,9.00
2018-01-15T15:27:21.693Z,9.13
2018-01-15T15:29:49.208Z,8.84
2018-01-15T15:32:16.792Z,8.86
2018-01-15T15:34:44.633Z,8.99
2018-01-15T15:37:12.187Z,9.15
2018-01-15T15:39:39.785Z,9.05
2018-01-15T15:42:07.572Z,8.73
2018-01-15T15:44:35.909Z,9.11
2018-01-15T15:47:04.213Z,9.22
2018-01-15T15:49:31.979Z,9.22
2018-01-15T15:51:59.496Z,8.99
2018-01-15T15:54:27.080Z,9.18
2018-01-15T15:56:54.636Z,9.29
2018-01-15T15:59:22.176Z,9.16
2018-01-15T16:01:49.754Z,9.10
2018-01-15T16:04:17.569Z,8.88
2018-01-15T16:06:45.216Z,8.75
2018-01-15T16:09:12.830Z,9.01
2018-01-15T16:11:41.320Z,9.03
2018-01-15T16:14:08.965Z,8.85
2018-01-15T16:16:36.476Z,8.93
2018-01-15T16:19:04.456Z,8.88
2018-01-15T16:21:36.597Z,8.90
2018-01-15T16:24:04.151Z,8.79
2018-01-15T16:26:31.693Z,8.76
2018-01-15T16:28:59.323Z,8.53
2018-01-15T16:31:27.282Z,8.53
2018-01-15T16:33:55.004Z,8.93
2018-01-15T16:36:22.921Z,8.93
2018-01-15T16:38:50.816Z,8.53
2018-01-15T16:41:18.784Z,8.95
2018-01-15T16:43:46.719Z,9.00
2018-01-15T16:46:14.628Z,8.83
2018-01-15T16:48:42.485Z,8.63
2018-01-15T16:51:10.437Z,8.54
2018-01-15T16:53:38.511Z,8.75
2018-01-15T16:56:06.351Z,8.40
2018-01-15T16:58:34.156Z,8.92
2018-01-15T17:01:02.213Z,9.04
2018-01-15T17:03:30.100Z,8.76
2018-01-15T17:05:57.917Z,8.82
2018-01-15T17:08:25.877Z,8.92
2018-01-15T17:10:53.614Z,9.05
2018-01-15T17:13:21.410Z,8.94
2018-01-15T17:15:50.572Z,9.05
2018-01-15T17:18:18.420Z,9.09
2018-01-15T17:20:46.310Z,8.74
2018-01-15T17:23:14.455Z,8.97
2018-01-15T17:25:42.996Z,8.70
2018-01-15T17:28:10.943Z,8.79
2018-01-15T17:30:38.879Z,9.03
2018-01-15T17:33:06.536Z,8.80
2018-01-15T17:35:34.374Z,8.64
2018-01-15T17:38:02.226Z,8.80
2018-01-15T17:40:30.092Z,8.46
2018-01-15T17:42:58.002Z,8.31
2018-01-15T17:45:26.364Z,8.47
2018-01-15T17:47:54.226Z,8.53
2018-01-15T17:50:22.017Z,8.45
2018-01-15T17:52:50.179Z,8.56
2018-01-15T17:55:18.229Z,7.99
2018-01-15T17:57:46.110Z,8.28
2018-01-15T18:00:14.196Z,8.26
2018-01-15T18:02:42.173Z,8.62
2018-01-15T18:05:09.981Z,8.48
2018-01-15T18:07:38.150Z,8.40
2018-01-15T18:10:06.926Z,8.52
2018-01-15T18:12:34.673Z,8.48
2018-01-15T18:15:02.842Z,8.14
2018-01-15T18:17:30.806Z,8.36
2018-01-15T18:19:58.811Z,8.00
2018-01-15T18:22:26.808Z,8.18
2018-01-15T18:24:54.703Z,7.99
2018-01-15T18:27:22.642Z,8.70
2018-01-15T18:29:50.852Z,8.62
2018-01-15T18:32:18.712Z,8.02
2018-01-15T18:34:46.652Z,8.16
2018-01-15T18:37:14.842Z,7.69
2018-01-15T18:39:43.709Z,8.02
2018-01-15T18:42:11.609Z,7.87
2018-01-15T18:44:39.734Z,7.92
2018-01-15T18:47:08.139Z,7.40
2018-01-15T18:49:35.855Z,7.90
2018-01-15T18:52:03.929Z,7.68
2018-01-15T18:54:31.865Z,7.45
2018-01-15T18:56:59.829Z,7.38
2018-01-15T18:59:28.829Z,7.27
2018-01-15T19:01:56.887Z,7.31
2018-01-15T19:04:24.835Z,7.26
2018-01-15T19:06:52.836Z,7.39
2018-01-15T19:09:20.673Z,7.06
2018-01-15T19:11:48.766Z,7.21
2018-01-15T19:14:16.776Z,7.08
2018-01-15T19:16:44.660Z,7.15
2018-01-15T19:19:12.609Z,7.16
2018-01-15T19:21:40.837Z,6.78
2018-01-15T19:24:08.642Z,6.86
2018-01-15T19:26:36.593Z,6.99
2018-01-15T19:29:04.734Z,6.99
2018-01-15T19:31:32.591Z,7.08
2018-01-15T19:34:00.373Z,6.87
2018-01-15T19:36:33.979Z,6.76
2018-01-15T19:39:04.497Z,6.98
2018-01-15T19:44:09.258Z,6.76
2018-01-15T19:46:42.920Z,6.83
2018-01-15T19:49:16.824Z,6.70
2018-01-15T19:51:50.604Z,6.78
2018-01-15T19:54:23.664Z,6.80
2018-01-15T19:56:57.068Z,6.80
2018-01-15T19:59:30.404Z,6.71
2018-01-15T20:05:16.240Z,6.65
2018-01-15T20:07:49.911Z,6.57
2018-01-15T20:10:23.251Z,6.92
2018-01-15T20:12:51.585Z,6.73
2018-01-15T20:15:19.706Z,6.80
2018-01-15T20:17:47.658Z,6.65
2018-01-15T20:20:15.844Z,6.96
2018-01-15T20:22:43.540Z,6.51
2018-01-15T20:25:11.580Z,6.85
2018-01-15T20:27:39.735Z,6.66
2018-01-15T20:30:07.822Z,6.42
2018-01-15T20:32:35.788Z,6.48
2018-01-15T20:35:03.846Z,6.50
2018-01-15T20:37:31.810Z,6.79
2018-01-15T20:40:00.017Z,6.66
2018-01-15T20:42:28.174Z,6.64
2018-01-15T20:44:55.935Z,6.63
2018-01-15T20:47:23.975Z,6.78
2018-01-15T20:49:52.197Z,7.02
2018-01-15T20:52:19.934Z,6.64
2018-01-15T20:54:49.154Z,6.61
2018-01-15T20:57:18.125Z,6.58
2018-01-15T20:59:46.216Z,6.81
2018-01-15T21:02:14.698Z,6.49
2018-01-15T21:04:42.851Z,6.41
2018-01-15T21:07:10.730Z,6.51
2018-01-15T21:09:38.700Z,6.43
2018-01-15T21:12:07.077Z,6.28
2018-01-15T21:14:35.349Z,6.26
2018-01-15T21:17:03.418Z,6.43
2018-01-15T21:19:31.687Z,6.37
2018-01-15T21:22:01.105Z,6.41
2018-01-15T21:24:29.246Z,6.41
2018-01-15T21:26:57.130Z,6.36
2018-01-15T21:29:24.893Z,6.35
2018-01-15T21:31:52.779Z,6.58
2018-01-15T21:34:20.954Z,6.51
2018-01-15T21:36:48.912Z,6.76
2018-01-15T21:39:16.888Z,6.80
2018-01-15T21:41:45.015Z,6.60
2018-01-15T21:44:12.882Z,6.64
2018-01-15T21:46:40.651Z,6.79
2018-01-15T21:49:08.764Z,7.14
2018-01-15T21:51:36.526Z,7.14
2018-01-15T21:54:04.399Z,7.05
2018-01-15T21:56:32.536Z,7.04
2018-01-15T21:59:00.337Z,7.07
2018-01-15T22:01:27.847Z,6.97
2018-01-15T22:03:56.682Z,6.93
2018-01-15T22:06:24.546Z,7.06
2018-01-15T22:08:52.311Z,6.98
2018-01-15T22:11:20.580Z,7.12
2018-01-15T22:13:48.446Z,7.26
2018-01-15T22:16:16.004Z,7.07
2018-01-15T22:18:43.873Z,7.48
2018-01-15T22:21:11.426Z,7.12
2018-01-15T22:23:39.197Z,7.31
2018-01-15T22:26:06.960Z,7.39
2018-01-15T22:28:34.622Z,7.80
2018-01-15T22:31:02.283Z,7.68
2018-01-15T22:33:30.162Z,7.62
2018-01-15T22:35:58.155Z,7.63
2018-01-15T22:38:25.684Z,7.71
2018-01-15T22:40:53.544Z,7.78
2018-01-15T22:43:22.652Z,7.52
2018-01-15T22:45:50.405Z,7.82
2018-01-15T22:48:18.265Z,7.82
2018-01-15T22:50:46.038Z,7.66
2018-01-15T22:53:14.216Z,7.80
2018-01-15T22:55:42.095Z,7.81
2018-01-15T22:58:09.625Z,7.81
2018-01-15T23:00:37.292Z,7.66
2018-01-15T23:03:05.174Z,7.76
2018-01-15T23:05:32.825Z,7.71
2018-01-15T23:08:00.477Z,7.98
2018-01-15T23:10:28.560Z,7.90
2018-01-15T23:12:56.349Z,7.58
2018-01-15T23:15:24.398Z,7.89
2018-01-15T23:17:52.311Z,7.82
2018-01-15T23:20:20.024Z,7.75
2018-01-15T23:22:47.684Z,7.91
2018-01-15T23:25:15.748Z,7.86
2018-01-15T23:27:43.418Z,7.96
2018-01-15T23:30:13.668Z,7.84
2018-01-15T23:32:42.412Z,7.72
2018-01-15T23:35:11.319Z,7.88
2018-01-15T23:37:38.979Z,7.78
2018-01-15T23:40:06.846Z,7.99
2018-01-15T23:42:34.555Z,8.20
2018-01-15T23:45:02.166Z,8.06
2018-01-15T23:47:30.141Z,8.18
2018-01-15T23:49:58.004Z,7.74
2018-01-15T23:52:25.541Z,7.93
2018-01-15T23:54:53.173Z,7.82
2018-01-15T23:57:20.892Z,8.10
2018-01-15T23:59:48.647Z,8.05
